sensor_id;sensor_type;location;lat;lon;timestamp;P1;durP1;ratioP1;P2;durP2;ratioP2
51529;SDS011;37613;51.788;21.582;2023-06-22T00:03:36;30.50;;;23.60;;
51529;SDS011;37613;51.788;21.582;2023-06-22T00:07:38;29.20;;;23.70;;
51529;SDS011;37613;51.788;21.582;2023-06-22T00:11:40;30.90;;;24.40;;
51529;SDS011;37613;51.788;21.582;2023-06-22T00:15:42;27.90;;;24.90;;
51529;SDS011;37613;51.788;21.582;2023-06-22T00:19:46;29.20;;;24.80;;
51529;SDS011;37613;51.788;21.582;2023-06-22T00:23:49;28.20;;;24.40;;
51529;SDS011;37613;51.788;21.582;2023-06-22T00:27:51;28.40;;;22.90;;
51529;SDS011;37613;51.788;21.582;2023-06-22T00:31:53;29.40;;;24.60;;
51529;SDS011;37613;51.788;21.582;2023-06-22T00:35:55;26.60;;;23.40;;
51529;SDS011;37613;51.788;21.582;2023-06-22T00:39:59;39.20;;;23.10;;
51529;SDS011;37613;51.788;21.582;2023-06-22T00:44:01;30.10;;;23.80;;
51529;SDS011;37613;51.788;21.582;2023-06-22T00:48:03;27.40;;;23.50;;
51529;SDS011;37613;51.788;21.582;2023-06-22T00:52:07;28.30;;;22.90;;
51529;SDS011;37613;51.788;21.582;2023-06-22T00:56:15;27.20;;;21.60;;
51529;SDS011;37613;51.788;21.582;2023-06-22T01:00:21;25.00;;;21.40;;
51529;SDS011;37613;51.788;21.582;2023-06-22T01:04:35;27.30;;;22.20;;
51529;SDS011;37613;51.788;21.582;2023-06-22T01:08:40;24.90;;;22.20;;
51529;SDS011;37613;51.788;21.582;2023-06-22T01:13:01;28.70;;;21.80;;
51529;SDS011;37613;51.788;21.582;2023-06-22T01:17:08;31.50;;;22.30;;
51529;SDS011;37613;51.788;21.582;2023-06-22T01:21:15;26.30;;;22.20;;
51529;SDS011;37613;51.788;21.582;2023-06-22T01:25:20;33.10;;;23.40;;
51529;SDS011;37613;51.788;21.582;2023-06-22T01:29:31;30.40;;;21.60;;
51529;SDS011;37613;51.788;21.582;2023-06-22T01:33:37;28.50;;;20.50;;
51529;SDS011;37613;51.788;21.582;2023-06-22T01:37:42;28.20;;;20.80;;
51529;SDS011;37613;51.788;21.582;2023-06-22T01:41:45;23.70;;;19.80;;
51529;SDS011;37613;51.788;21.582;2023-06-22T01:45:50;28.00;;;22.90;;
51529;SDS011;37613;51.788;21.582;2023-06-22T01:49:53;28.00;;;23.10;;
51529;SDS011;37613;51.788;21.582;2023-06-22T01:53:56;26.50;;;20.40;;
51529;SDS011;37613;51.788;21.582;2023-06-22T01:57:58;23.40;;;19.80;;
51529;SDS011;37613;51.788;21.582;2023-06-22T02:02:08;21.10;;;18.70;;
51529;SDS011;37613;51.788;21.582;2023-06-22T02:06:16;23.00;;;18.60;;
51529;SDS011;37613;51.788;21.582;2023-06-22T02:10:23;22.10;;;18.90;;
51529;SDS011;37613;51.788;21.582;2023-06-22T02:14:28;21.20;;;18.80;;
51529;SDS011;37613;51.788;21.582;2023-06-22T02:18:31;24.80;;;19.60;;
51529;SDS011;37613;51.788;21.582;2023-06-22T02:22:33;24.60;;;21.80;;
51529;SDS011;37613;51.788;21.582;2023-06-22T02:26:34;23.70;;;20.90;;
51529;SDS011;37613;51.788;21.582;2023-06-22T02:30:39;24.60;;;21.90;;
51529;SDS011;37613;51.788;21.582;2023-06-22T02:34:41;26.20;;;23.50;;
51529;SDS011;37613;51.788;21.582;2023-06-22T02:38:55;26.60;;;23.70;;
51529;SDS011;37613;51.788;21.582;2023-06-22T02:43:02;26.60;;;23.50;;
51529;SDS011;37613;51.788;21.582;2023-06-22T02:47:04;28.90;;;24.50;;
51529;SDS011;37613;51.788;21.582;2023-06-22T02:51:07;26.50;;;23.40;;
51529;SDS011;37613;51.788;21.582;2023-06-22T02:59:11;24.90;;;22.20;;
51529;SDS011;37613;51.788;21.582;2023-06-22T03:03:13;25.80;;;23.20;;
51529;SDS011;37613;51.788;21.582;2023-06-22T03:07:15;28.70;;;23.90;;
51529;SDS011;37613;51.788;21.582;2023-06-22T03:11:19;24.20;;;21.20;;
51529;SDS011;37613;51.788;21.582;2023-06-22T03:15:21;26.80;;;23.00;;
51529;SDS011;37613;51.788;21.582;2023-06-22T03:19:23;26.10;;;23.40;;
51529;SDS011;37613;51.788;21.582;2023-06-22T03:23:25;25.00;;;22.40;;
51529;SDS011;37613;51.788;21.582;2023-06-22T03:27:27;24.80;;;22.40;;
51529;SDS011;37613;51.788;21.582;2023-06-22T03:31:29;24.80;;;22.20;;
51529;SDS011;37613;51.788;21.582;2023-06-22T03:35:31;23.40;;;21.10;;
51529;SDS011;37613;51.788;21.582;2023-06-22T03:39:33;25.50;;;21.50;;
51529;SDS011;37613;51.788;21.582;2023-06-22T03:43:35;23.50;;;19.60;;
51529;SDS011;37613;51.788;21.582;2023-06-22T03:47:37;26.30;;;21.30;;
51529;SDS011;37613;51.788;21.582;2023-06-22T03:51:39;24.40;;;21.70;;
51529;SDS011;37613;51.788;21.582;2023-06-22T03:55:48;24.40;;;21.20;;
51529;SDS011;37613;51.788;21.582;2023-06-22T03:59:51;22.40;;;20.10;;
51529;SDS011;37613;51.788;21.582;2023-06-22T04:03:53;24.60;;;21.90;;
51529;SDS011;37613;51.788;21.582;2023-06-22T04:07:55;23.20;;;20.20;;
51529;SDS011;37613;51.788;21.582;2023-06-22T04:11:57;22.50;;;20.30;;
51529;SDS011;37613;51.788;21.582;2023-06-22T04:15:59;23.10;;;20.70;;
51529;SDS011;37613;51.788;21.582;2023-06-22T04:20:04;23.90;;;21.60;;
51529;SDS011;37613;51.788;21.582;2023-06-22T04:24:07;25.80;;;22.20;;
51529;SDS011;37613;51.788;21.582;2023-06-22T04:28:09;24.60;;;22.00;;
51529;SDS011;37613;51.788;21.582;2023-06-22T04:32:16;24.00;;;21.50;;
51529;SDS011;37613;51.788;21.582;2023-06-22T04:36:19;25.50;;;22.80;;
51529;SDS011;37613;51.788;21.582;2023-06-22T04:40:22;26.40;;;23.70;;
51529;SDS011;37613;51.788;21.582;2023-06-22T04:44:25;30.30;;;26.60;;
51529;SDS011;37613;51.788;21.582;2023-06-22T04:48:28;34.70;;;29.60;;
51529;SDS011;37613;51.788;21.582;2023-06-22T04:52:34;33.70;;;29.80;;
51529;SDS011;37613;51.788;21.582;2023-06-22T04:56:36;43.30;;;34.90;;
51529;SDS011;37613;51.788;21.582;2023-06-22T05:00:38;39.60;;;32.90;;
51529;SDS011;37613;51.788;21.582;2023-06-22T05:04:40;39.60;;;34.00;;
51529;SDS011;37613;51.788;21.582;2023-06-22T05:08:42;42.10;;;33.20;;
51529;SDS011;37613;51.788;21.582;2023-06-22T05:12:45;39.50;;;33.10;;
51529;SDS011;37613;51.788;21.582;2023-06-22T05:16:48;41.20;;;35.00;;
51529;SDS011;37613;51.788;21.582;2023-06-22T05:20:50;40.60;;;35.10;;
51529;SDS011;37613;51.788;21.582;2023-06-22T05:24:53;40.50;;;33.70;;
51529;SDS011;37613;51.788;21.582;2023-06-22T05:28:55;41.40;;;35.60;;
51529;SDS011;37613;51.788;21.582;2023-06-22T05:32:58;38.40;;;33.40;;
51529;SDS011;37613;51.788;21.582;2023-06-22T05:37:01;47.90;;;39.10;;
51529;SDS011;37613;51.788;21.582;2023-06-22T05:41:04;45.50;;;39.00;;
51529;SDS011;37613;51.788;21.582;2023-06-22T05:45:06;46.40;;;38.70;;
51529;SDS011;37613;51.788;21.582;2023-06-22T05:49:11;45.40;;;39.70;;
51529;SDS011;37613;51.788;21.582;2023-06-22T05:53:18;45.80;;;40.30;;
51529;SDS011;37613;51.788;21.582;2023-06-22T05:57:21;46.80;;;39.80;;
51529;SDS011;37613;51.788;21.582;2023-06-22T06:01:23;52.70;;;42.80;;
51529;SDS011;37613;51.788;21.582;2023-06-22T06:05:27;43.90;;;39.20;;
51529;SDS011;37613;51.788;21.582;2023-06-22T06:09:29;50.50;;;43.10;;
51529;SDS011;37613;51.788;21.582;2023-06-22T06:13:31;57.80;;;45.20;;
51529;SDS011;37613;51.788;21.582;2023-06-22T06:17:33;55.60;;;43.70;;
51529;SDS011;37613;51.788;21.582;2023-06-22T06:21:35;54.80;;;44.50;;
51529;SDS011;37613;51.788;21.582;2023-06-22T06:25:37;56.00;;;44.70;;
51529;SDS011;37613;51.788;21.582;2023-06-22T06:29:39;58.60;;;42.60;;
51529;SDS011;37613;51.788;21.582;2023-06-22T06:33:41;57.90;;;43.70;;
51529;SDS011;37613;51.788;21.582;2023-06-22T06:37:47;57.00;;;43.50;;
51529;SDS011;37613;51.788;21.582;2023-06-22T06:41:50;55.50;;;43.20;;
51529;SDS011;37613;51.788;21.582;2023-06-22T06:45:52;55.00;;;40.70;;
51529;SDS011;37613;51.788;21.582;2023-06-22T06:49:54;56.50;;;43.90;;
51529;SDS011;37613;51.788;21.582;2023-06-22T06:53:56;52.30;;;42.00;;
51529;SDS011;37613;51.788;21.582;2023-06-22T06:57:58;53.10;;;43.20;;
51529;SDS011;37613;51.788;21.582;2023-06-22T07:02:01;53.40;;;42.80;;
51529;SDS011;37613;51.788;21.582;2023-06-22T07:06:03;48.00;;;38.30;;
51529;SDS011;37613;51.788;21.582;2023-06-22T07:10:05;43.80;;;37.00;;
51529;SDS011;37613;51.788;21.582;2023-06-22T07:14:08;45.60;;;39.30;;
51529;SDS011;37613;51.788;21.582;2023-06-22T07:18:10;47.00;;;40.30;;
51529;SDS011;37613;51.788;21.582;2023-06-22T07:22:12;41.20;;;35.40;;
51529;SDS011;37613;51.788;21.582;2023-06-22T07:26:14;41.10;;;34.80;;
51529;SDS011;37613;51.788;21.582;2023-06-22T07:30:17;38.20;;;31.80;;
51529;SDS011;37613;51.788;21.582;2023-06-22T07:34:19;36.10;;;32.00;;
51529;SDS011;37613;51.788;21.582;2023-06-22T07:38:21;37.60;;;32.40;;
51529;SDS011;37613;51.788;21.582;2023-06-22T07:42:26;36.10;;;29.40;;
51529;SDS011;37613;51.788;21.582;2023-06-22T07:46:29;33.70;;;30.10;;
51529;SDS011;37613;51.788;21.582;2023-06-22T07:50:34;32.30;;;28.80;;
51529;SDS011;37613;51.788;21.582;2023-06-22T07:54:35;31.20;;;26.60;;
51529;SDS011;37613;51.788;21.582;2023-06-22T08:02:40;29.50;;;25.90;;
51529;SDS011;37613;51.788;21.582;2023-06-22T08:06:43;27.20;;;24.10;;
51529;SDS011;37613;51.788;21.582;2023-06-22T08:10:45;29.70;;;26.70;;
51529;SDS011;37613;51.788;21.582;2023-06-22T08:14:47;29.50;;;26.30;;
51529;SDS011;37613;51.788;21.582;2023-06-22T08:18:49;27.90;;;24.70;;
51529;SDS011;37613;51.788;21.582;2023-06-22T08:22:52;26.00;;;23.40;;
51529;SDS011;37613;51.788;21.582;2023-06-22T08:26:55;23.10;;;20.70;;
51529;SDS011;37613;51.788;21.582;2023-06-22T08:30:59;23.40;;;20.80;;
51529;SDS011;37613;51.788;21.582;2023-06-22T08:35:03;21.10;;;19.00;;
51529;SDS011;37613;51.788;21.582;2023-06-22T08:39:08;19.60;;;17.70;;
51529;SDS011;37613;51.788;21.582;2023-06-22T08:48:35;19.10;;;16.80;;
51529;SDS011;37613;51.788;21.582;2023-06-22T08:52:55;17.00;;;15.20;;
51529;SDS011;37613;51.788;21.582;2023-06-22T08:57:28;16.10;;;14.00;;
51529;SDS011;37613;51.788;21.582;2023-06-22T09:02:37;14.60;;;13.10;;
51529;SDS011;37613;51.788;21.582;2023-06-22T09:07:41;16.00;;;12.30;;
51529;SDS011;37613;51.788;21.582;2023-06-22T09:12:39;11.70;;;10.60;;
51529;SDS011;37613;51.788;21.582;2023-06-22T09:17:43;12.80;;;11.40;;
51529;SDS011;37613;51.788;21.582;2023-06-22T09:21:58;12.90;;;11.50;;
51529;SDS011;37613;51.788;21.582;2023-06-22T09:26:47;15.20;;;12.40;;
51529;SDS011;37613;51.788;21.582;2023-06-22T09:40:01;10.20;;;8.50;;
51529;SDS011;37613;51.788;21.582;2023-06-22T09:49:03;8.60;;;7.80;;
51529;SDS011;37613;51.788;21.582;2023-06-22T09:54:14;8.20;;;7.50;;
51529;SDS011;37613;51.788;21.582;2023-06-22T09:58:47;6.00;;;5.40;;
51529;SDS011;37613;51.788;21.582;2023-06-22T10:08:37;4.80;;;4.20;;
51529;SDS011;37613;51.788;21.582;2023-06-22T10:12:55;6.30;;;4.20;;
51529;SDS011;37613;51.788;21.582;2023-06-22T10:17:03;6.40;;;3.80;;
51529;SDS011;37613;51.788;21.582;2023-06-22T10:21:09;4.50;;;3.40;;
51529;SDS011;37613;51.788;21.582;2023-06-22T10:25:36;6.20;;;3.20;;
51529;SDS011;37613;51.788;21.582;2023-06-22T10:29:41;3.90;;;3.50;;
51529;SDS011;37613;51.788;21.582;2023-06-22T10:34:17;3.60;;;3.00;;
51529;SDS011;37613;51.788;21.582;2023-06-22T10:38:42;6.60;;;3.50;;
51529;SDS011;37613;51.788;21.582;2023-06-22T10:43:03;3.80;;;3.00;;
51529;SDS011;37613;51.788;21.582;2023-06-22T10:47:05;3.20;;;2.70;;
51529;SDS011;37613;51.788;21.582;2023-06-22T10:51:10;7.30;;;3.00;;
51529;SDS011;37613;51.788;21.582;2023-06-22T10:55:36;3.10;;;2.80;;
51529;SDS011;37613;51.788;21.582;2023-06-22T10:59:39;2.70;;;2.40;;
51529;SDS011;37613;51.788;21.582;2023-06-22T11:03:41;5.10;;;2.50;;
51529;SDS011;37613;51.788;21.582;2023-06-22T11:07:43;2.40;;;1.90;;
51529;SDS011;37613;51.788;21.582;2023-06-22T11:11:49;4.40;;;2.30;;
51529;SDS011;37613;51.788;21.582;2023-06-22T11:15:55;2.20;;;2.00;;
51529;SDS011;37613;51.788;21.582;2023-06-22T11:19:57;3.00;;;2.00;;
51529;SDS011;37613;51.788;21.582;2023-06-22T11:24:02;2.70;;;2.20;;
51529;SDS011;37613;51.788;21.582;2023-06-22T11:28:05;2.60;;;2.10;;
51529;SDS011;37613;51.788;21.582;2023-06-22T11:32:08;2.60;;;2.30;;
51529;SDS011;37613;51.788;21.582;2023-06-22T11:36:10;2.30;;;2.10;;
51529;SDS011;37613;51.788;21.582;2023-06-22T11:40:18;2.30;;;2.10;;
51529;SDS011;37613;51.788;21.582;2023-06-22T11:45:10;2.30;;;2.00;;
51529;SDS011;37613;51.788;21.582;2023-06-22T11:49:35;2.00;;;1.80;;
51529;SDS011;37613;51.788;21.582;2023-06-22T11:53:57;3.50;;;2.40;;
51529;SDS011;37613;51.788;21.582;2023-06-22T11:58:05;7.40;;;1.80;;
51529;SDS011;37613;51.788;21.582;2023-06-22T12:02:40;2.10;;;1.90;;
51529;SDS011;37613;51.788;21.582;2023-06-22T12:06:49;3.00;;;2.10;;
51529;SDS011;37613;51.788;21.582;2023-06-22T12:11:31;2.00;;;1.90;;
51529;SDS011;37613;51.788;21.582;2023-06-22T12:16:45;2.10;;;2.00;;
51529;SDS011;37613;51.788;21.582;2023-06-22T12:21:20;4.60;;;2.20;;
51529;SDS011;37613;51.788;21.582;2023-06-22T12:26:17;2.30;;;2.10;;
51529;SDS011;37613;51.788;21.582;2023-06-22T12:30:19;2.80;;;2.30;;
51529;SDS011;37613;51.788;21.582;2023-06-22T12:34:25;6.10;;;1.80;;
51529;SDS011;37613;51.788;21.582;2023-06-22T12:38:49;2.50;;;2.30;;
51529;SDS011;37613;51.788;21.582;2023-06-22T12:43:02;2.80;;;2.00;;
51529;SDS011;37613;51.788;21.582;2023-06-22T12:47:19;2.60;;;2.30;;
51529;SDS011;37613;51.788;21.582;2023-06-22T12:51:27;2.40;;;1.90;;
51529;SDS011;37613;51.788;21.582;2023-06-22T12:55:55;3.60;;;2.10;;
51529;SDS011;37613;51.788;21.582;2023-06-22T13:00:11;2.70;;;2.20;;
51529;SDS011;37613;51.788;21.582;2023-06-22T13:04:19;4.90;;;2.40;;
51529;SDS011;37613;51.788;21.582;2023-06-22T13:30:17;4.50;;;2.70;;
51529;SDS011;37613;51.788;21.582;2023-06-22T13:34:20;2.60;;;2.40;;
51529;SDS011;37613;51.788;21.582;2023-06-22T13:38:23;3.40;;;2.40;;
51529;SDS011;37613;51.788;21.582;2023-06-22T13:42:26;3.60;;;2.60;;
51529;SDS011;37613;51.788;21.582;2023-06-22T13:46:28;3.30;;;2.50;;
51529;SDS011;37613;51.788;21.582;2023-06-22T14:17:47;4.30;;;2.40;;
51529;SDS011;37613;51.788;21.582;2023-06-22T14:21:53;2.80;;;2.40;;
51529;SDS011;37613;51.788;21.582;2023-06-22T14:39:25;2.90;;;2.50;;
51529;SDS011;37613;51.788;21.582;2023-06-22T14:49:22;3.10;;;2.60;;
51529;SDS011;37613;51.788;21.582;2023-06-22T14:58:58;2.50;;;2.30;;
51529;SDS011;37613;51.788;21.582;2023-06-22T15:03:09;4.60;;;2.80;;
51529;SDS011;37613;51.788;21.582;2023-06-22T15:27:59;2.60;;;2.40;;
51529;SDS011;37613;51.788;21.582;2023-06-22T15:32:01;4.90;;;2.40;;
51529;SDS011;37613;51.788;21.582;2023-06-22T15:36:04;3.60;;;2.90;;
51529;SDS011;37613;51.788;21.582;2023-06-22T15:40:24;3.70;;;2.40;;
51529;SDS011;37613;51.788;21.582;2023-06-22T15:44:29;4.80;;;3.30;;
51529;SDS011;37613;51.788;21.582;2023-06-22T15:48:41;6.30;;;3.60;;
51529;SDS011;37613;51.788;21.582;2023-06-22T15:52:47;7.10;;;5.00;;
51529;SDS011;37613;51.788;21.582;2023-06-22T15:56:51;4.80;;;3.40;;
51529;SDS011;37613;51.788;21.582;2023-06-22T16:00:54;5.10;;;3.10;;
51529;SDS011;37613;51.788;21.582;2023-06-22T16:05:06;12.10;;;6.60;;
51529;SDS011;37613;51.788;21.582;2023-06-22T16:09:17;6.30;;;3.40;;
51529;SDS011;37613;51.788;21.582;2023-06-22T16:13:19;20.10;;;9.40;;
51529;SDS011;37613;51.788;21.582;2023-06-22T16:18:14;17.00;;;6.90;;
51529;SDS011;37613;51.788;21.582;2023-06-22T16:22:17;3.30;;;2.80;;
51529;SDS011;37613;51.788;21.582;2023-06-22T16:26:43;3.20;;;2.80;;
51529;SDS011;37613;51.788;21.582;2023-06-22T16:30:50;2.80;;;2.40;;
51529;SDS011;37613;51.788;21.582;2023-06-22T16:35:03;4.80;;;3.20;;
51529;SDS011;37613;51.788;21.582;2023-06-22T16:39:30;5.80;;;2.90;;
51529;SDS011;37613;51.788;21.582;2023-06-22T16:43:32;4.70;;;2.80;;
51529;SDS011;37613;51.788;21.582;2023-06-22T16:47:35;4.30;;;3.50;;
51529;SDS011;37613;51.788;21.582;2023-06-22T16:51:51;3.90;;;3.20;;
51529;SDS011;37613;51.788;21.582;2023-06-22T16:56:15;8.00;;;3.00;;
51529;SDS011;37613;51.788;21.582;2023-06-22T17:00:39;2.90;;;2.60;;
51529;SDS011;37613;51.788;21.582;2023-06-22T17:05:11;4.50;;;2.50;;
51529;SDS011;37613;51.788;21.582;2023-06-22T17:09:17;2.90;;;2.60;;
51529;SDS011;37613;51.788;21.582;2023-06-22T17:13:44;5.30;;;3.00;;
51529;SDS011;37613;51.788;21.582;2023-06-22T17:18:08;4.70;;;3.60;;
51529;SDS011;37613;51.788;21.582;2023-06-22T17:22:20;3.00;;;2.60;;
51529;SDS011;37613;51.788;21.582;2023-06-22T17:33:11;15.00;;;3.10;;
51529;SDS011;37613;51.788;21.582;2023-06-22T17:37:56;4.40;;;2.50;;
51529;SDS011;37613;51.788;21.582;2023-06-22T17:42:44;4.20;;;2.90;;
51529;SDS011;37613;51.788;21.582;2023-06-22T17:47:27;5.40;;;3.50;;
51529;SDS011;37613;51.788;21.582;2023-06-22T17:52:00;5.50;;;4.00;;
51529;SDS011;37613;51.788;21.582;2023-06-22T17:56:34;6.00;;;3.10;;
51529;SDS011;37613;51.788;21.582;2023-06-22T18:01:00;6.70;;;3.80;;
51529;SDS011;37613;51.788;21.582;2023-06-22T18:05:33;5.50;;;3.10;;
51529;SDS011;37613;51.788;21.582;2023-06-22T18:09:59;3.00;;;2.80;;
51529;SDS011;37613;51.788;21.582;2023-06-22T18:18:54;4.70;;;3.00;;
51529;SDS011;37613;51.788;21.582;2023-06-22T18:23:34;3.60;;;3.30;;
51529;SDS011;37613;51.788;21.582;2023-06-22T18:27:38;3.70;;;3.20;;
51529;SDS011;37613;51.788;21.582;2023-06-22T18:31:42;4.70;;;2.90;;
51529;SDS011;37613;51.788;21.582;2023-06-22T18:35:44;3.40;;;3.10;;
51529;SDS011;37613;51.788;21.582;2023-06-22T18:39:54;3.80;;;3.00;;
51529;SDS011;37613;51.788;21.582;2023-06-22T18:44:01;5.70;;;4.00;;
51529;SDS011;37613;51.788;21.582;2023-06-22T18:48:06;5.80;;;3.40;;
51529;SDS011;37613;51.788;21.582;2023-06-22T18:56:12;6.50;;;4.80;;
51529;SDS011;37613;51.788;21.582;2023-06-22T19:00:16;9.10;;;5.00;;
51529;SDS011;37613;51.788;21.582;2023-06-22T19:08:21;7.50;;;4.90;;
51529;SDS011;37613;51.788;21.582;2023-06-22T19:12:25;12.10;;;5.40;;
51529;SDS011;37613;51.788;21.582;2023-06-22T19:20:32;5.40;;;4.40;;
51529;SDS011;37613;51.788;21.582;2023-06-22T19:24:47;4.60;;;4.10;;
51529;SDS011;37613;51.788;21.582;2023-06-22T19:28:55;4.80;;;4.40;;
51529;SDS011;37613;51.788;21.582;2023-06-22T19:33:03;9.80;;;5.20;;
51529;SDS011;37613;51.788;21.582;2023-06-22T19:37:13;5.70;;;5.20;;
51529;SDS011;37613;51.788;21.582;2023-06-22T19:41:18;5.50;;;4.70;;
51529;SDS011;37613;51.788;21.582;2023-06-22T19:45:23;8.40;;;5.20;;
51529;SDS011;37613;51.788;21.582;2023-06-22T19:49:25;8.10;;;4.70;;
51529;SDS011;37613;51.788;21.582;2023-06-22T19:53:27;7.40;;;6.00;;
51529;SDS011;37613;51.788;21.582;2023-06-22T20:01:36;7.70;;;6.20;;
51529;SDS011;37613;51.788;21.582;2023-06-22T20:05:44;9.20;;;6.60;;
51529;SDS011;37613;51.788;21.582;2023-06-22T20:10:04;7.70;;;6.30;;
51529;SDS011;37613;51.788;21.582;2023-06-22T20:14:12;9.60;;;7.20;;
51529;SDS011;37613;51.788;21.582;2023-06-22T20:18:14;8.00;;;7.10;;
51529;SDS011;37613;51.788;21.582;2023-06-22T20:22:17;9.80;;;7.70;;
51529;SDS011;37613;51.788;21.582;2023-06-22T20:26:20;11.40;;;8.30;;
51529;SDS011;37613;51.788;21.582;2023-06-22T20:30:22;12.70;;;9.50;;
51529;SDS011;37613;51.788;21.582;2023-06-22T20:34:27;11.00;;;8.90;;
51529;SDS011;37613;51.788;21.582;2023-06-22T20:38:43;13.90;;;10.20;;
51529;SDS011;37613;51.788;21.582;2023-06-22T20:42:47;20.80;;;12.30;;
51529;SDS011;37613;51.788;21.582;2023-06-22T20:46:49;20.00;;;13.80;;
51529;SDS011;37613;51.788;21.582;2023-06-22T20:50:51;22.30;;;15.20;;
51529;SDS011;37613;51.788;21.582;2023-06-22T20:54:59;22.70;;;14.30;;
51529;SDS011;37613;51.788;21.582;2023-06-22T20:59:01;27.40;;;15.60;;
51529;SDS011;37613;51.788;21.582;2023-06-22T21:07:06;23.70;;;14.40;;
51529;SDS011;37613;51.788;21.582;2023-06-22T21:11:08;23.80;;;14.10;;
51529;SDS011;37613;51.788;21.582;2023-06-22T21:15:10;21.00;;;13.90;;
51529;SDS011;37613;51.788;21.582;2023-06-22T21:19:13;23.10;;;15.30;;
51529;SDS011;37613;51.788;21.582;2023-06-22T21:23:15;23.70;;;15.30;;
51529;SDS011;37613;51.788;21.582;2023-06-22T21:27:17;23.50;;;15.40;;
51529;SDS011;37613;51.788;21.582;2023-06-22T21:31:19;24.40;;;15.90;;
51529;SDS011;37613;51.788;21.582;2023-06-22T21:35:22;21.90;;;14.70;;
51529;SDS011;37613;51.788;21.582;2023-06-22T21:39:24;29.00;;;14.60;;
51529;SDS011;37613;51.788;21.582;2023-06-22T21:43:26;27.50;;;14.10;;
51529;SDS011;37613;51.788;21.582;2023-06-22T21:47:28;25.40;;;14.30;;
51529;SDS011;37613;51.788;21.582;2023-06-22T21:51:30;30.10;;;17.00;;
51529;SDS011;37613;51.788;21.582;2023-06-22T21:55:32;30.90;;;15.20;;
51529;SDS011;37613;51.788;21.582;2023-06-22T21:59:35;29.90;;;14.10;;
51529;SDS011;37613;51.788;21.582;2023-06-22T22:03:37;25.00;;;14.80;;
51529;SDS011;37613;51.788;21.582;2023-06-22T22:07:39;28.30;;;15.50;;
51529;SDS011;37613;51.788;21.582;2023-06-22T22:11:41;28.80;;;15.00;;
51529;SDS011;37613;51.788;21.582;2023-06-22T22:15:47;23.30;;;14.10;;
51529;SDS011;37613;51.788;21.582;2023-06-22T22:19:52;27.40;;;14.70;;
51529;SDS011;37613;51.788;21.582;2023-06-22T22:24:00;30.00;;;17.10;;
51529;SDS011;37613;51.788;21.582;2023-06-22T22:28:02;29.50;;;17.30;;
51529;SDS011;37613;51.788;21.582;2023-06-22T22:32:05;31.60;;;16.90;;
51529;SDS011;37613;51.788;21.582;2023-06-22T22:36:08;30.20;;;16.10;;
51529;SDS011;37613;51.788;21.582;2023-06-22T22:40:11;27.60;;;15.50;;
51529;SDS011;37613;51.788;21.582;2023-06-22T22:48:15;26.00;;;15.20;;
51529;SDS011;37613;51.788;21.582;2023-06-22T22:52:17;26.70;;;14.50;;
51529;SDS011;37613;51.788;21.582;2023-06-22T22:56:21;26.50;;;14.40;;
51529;SDS011;37613;51.788;21.582;2023-06-22T23:00:25;25.70;;;15.50;;
51529;SDS011;37613;51.788;21.582;2023-06-22T23:04:27;26.50;;;16.10;;
51529;SDS011;37613;51.788;21.582;2023-06-22T23:08:29;21.70;;;16.10;;
51529;SDS011;37613;51.788;21.582;2023-06-22T23:12:31;20.00;;;15.20;;
51529;SDS011;37613;51.788;21.582;2023-06-22T23:16:33;24.40;;;15.40;;
51529;SDS011;37613;51.788;21.582;2023-06-22T23:20:38;22.00;;;14.90;;
51529;SDS011;37613;51.788;21.582;2023-06-22T23:24:40;19.90;;;14.70;;
51529;SDS011;37613;51.788;21.582;2023-06-22T23:28:42;23.10;;;14.20;;
51529;SDS011;37613;51.788;21.582;2023-06-22T23:32:44;19.00;;;13.70;;
51529;SDS011;37613;51.788;21.582;2023-06-22T23:36:49;20.40;;;14.10;;
51529;SDS011;37613;51.788;21.582;2023-06-22T23:40:51;17.30;;;13.80;;
51529;SDS011;37613;51.788;21.582;2023-06-22T23:44:56;17.10;;;13.20;;
51529;SDS011;37613;51.788;21.582;2023-06-22T23:48:58;17.60;;;13.50;;
51529;SDS011;37613;51.788;21.582;2023-06-22T23:53:00;15.50;;;12.90;;
51529;SDS011;37613;51.788;21.582;2023-06-22T23:57:02;16.20;;;13.30;;
